createdAt,value
2022-09-06T00:00:42.165Z,12.95
2022-09-06T00:03:09.322Z,9.80
2022-09-06T00:05:36.902Z,11.43
2022-09-06T00:08:05.685Z,10.90
2022-09-06T00:10:33.051Z,10.68
2022-09-06T00:13:07.613Z,9.75
2022-09-06T00:15:35.661Z,12.25
2022-09-06T00:18:04.501Z,15.27
2022-09-06T00:20:32.404Z,13.05
2022-09-06T00:23:04.613Z,12.68
2022-09-06T00:25:31.847Z,10.13
2022-09-06T00:28:00.523Z,11.18
2022-09-06T00:30:28.668Z,11.13
2022-09-06T00:32:55.838Z,11.85
2022-09-06T00:35:24.858Z,11.23
2022-09-06T00:37:55.849Z,12.48
2022-09-06T00:40:22.714Z,9.73
2022-09-06T00:42:49.373Z,13.32
2022-09-06T00:45:16.092Z,14.50
2022-09-06T00:47:43.801Z,15.65
2022-09-06T00:50:12.275Z,12.13
2022-09-06T00:52:39.999Z,9.18
2022-09-06T00:55:07.264Z,10.25
2022-09-06T00:57:35.071Z,11.80
2022-09-06T01:00:04.372Z,16.38
2022-09-06T01:02:31.177Z,17.15
2022-09-06T01:04:58.071Z,14.85
2022-09-06T01:07:39.880Z,9.68
2022-09-06T01:10:29.629Z,9.25
2022-09-06T01:13:02.128Z,12.40
2022-09-06T01:15:51.652Z,14.15
2022-09-06T01:18:24.061Z,11.50
2022-09-06T01:21:08.957Z,9.32
2022-09-06T01:23:53.754Z,11.13
2022-09-06T01:26:39.311Z,9.95
2022-09-06T01:29:29.534Z,10.93
2022-09-06T01:32:09.353Z,11.60
2022-09-06T01:34:41.798Z,10.95
2022-09-06T01:37:20.302Z,12.77
2022-09-06T01:39:47.084Z,8.75
2022-09-06T01:42:21.178Z,12.27
2022-09-06T01:44:54.476Z,10.65
2022-09-06T01:48:12.154Z,11.88
2022-09-06T01:51:02.599Z,11.93
2022-09-06T01:53:48.130Z,9.48
2022-09-06T01:56:27.084Z,10.75
2022-09-06T01:59:10.297Z,12.63
2022-09-06T02:01:37.034Z,15.38
2022-09-06T02:04:18.579Z,14.30
2022-09-06T02:06:53.243Z,11.65
2022-09-06T02:09:23.323Z,13.82
2022-09-06T02:11:53.220Z,19.70
2022-09-06T02:14:42.358Z,11.27
2022-09-06T02:17:11.189Z,11.95
2022-09-06T02:19:46.287Z,15.05
2022-09-06T02:22:15.299Z,14.30
2022-09-06T02:24:42.628Z,11.18
2022-09-06T02:27:09.346Z,19.73
2022-09-06T02:29:36.184Z,18.67
2022-09-06T02:32:23.923Z,13.82
2022-09-06T02:34:52.353Z,17.20
2022-09-06T02:37:19.791Z,16.33
2022-09-06T02:39:46.549Z,14.38
2022-09-06T02:42:14.806Z,14.10
2022-09-06T02:44:41.589Z,21.40
2022-09-06T02:47:08.405Z,17.30
2022-09-06T02:49:35.263Z,15.98
2022-09-06T02:52:02.056Z,15.15
2022-09-06T02:54:28.793Z,15.18
2022-09-06T02:56:55.492Z,21.00
2022-09-06T02:59:22.227Z,14.27
2022-09-06T03:01:49.030Z,19.27
2022-09-06T03:04:15.743Z,16.85
2022-09-06T03:06:42.440Z,17.65
2022-09-06T03:09:10.497Z,26.75
2022-09-06T03:11:38.178Z,18.52
2022-09-06T03:14:05.130Z,13.32
2022-09-06T03:16:31.837Z,18.08
2022-09-06T03:18:58.587Z,16.95
2022-09-06T03:21:25.314Z,15.43
2022-09-06T03:23:52.551Z,15.77
2022-09-06T03:26:19.245Z,16.60
2022-09-06T03:28:46.048Z,17.70
2022-09-06T03:31:13.057Z,13.82
2022-09-06T03:33:39.950Z,21.85
2022-09-06T03:36:06.943Z,15.85
2022-09-06T03:38:34.261Z,17.67
2022-09-06T03:41:01.018Z,15.80
2022-09-06T03:43:28.306Z,21.42
2022-09-06T03:45:57.426Z,20.50
2022-09-06T03:50:54.330Z,17.00
2022-09-06T03:53:22.219Z,17.85
2022-09-06T03:55:50.850Z,18.48
2022-09-06T03:58:19.121Z,17.10
2022-09-06T04:00:45.931Z,23.38
2022-09-06T04:03:12.958Z,20.15
2022-09-06T04:05:39.701Z,20.27
2022-09-06T04:08:06.527Z,29.90
2022-09-06T04:10:33.981Z,23.85
2022-09-06T04:13:00.958Z,15.77
2022-09-06T04:15:27.839Z,17.85
2022-09-06T04:17:54.583Z,19.63
2022-09-06T04:20:21.287Z,18.02
2022-09-06T04:22:47.983Z,19.45
2022-09-06T04:25:14.680Z,26.83
2022-09-06T04:27:41.444Z,17.48
2022-09-06T04:30:08.709Z,19.23
2022-09-06T04:32:35.464Z,13.88
2022-09-06T04:35:02.243Z,18.67
2022-09-06T04:37:28.915Z,17.15
2022-09-06T04:39:55.777Z,22.92
2022-09-06T04:42:22.558Z,18.48
2022-09-06T04:44:49.280Z,20.13
2022-09-06T04:47:18.216Z,21.65
2022-09-06T04:52:11.962Z,20.05
2022-09-06T04:54:38.654Z,22.83
2022-09-06T04:57:05.517Z,19.38
2022-09-06T04:59:32.904Z,18.45
2022-09-06T05:01:59.797Z,24.95
2022-09-06T05:04:26.746Z,18.40
2022-09-06T05:07:19.844Z,16.52
2022-09-06T05:09:46.520Z,18.13
2022-09-06T05:12:13.473Z,17.02
2022-09-06T05:14:40.248Z,17.20
2022-09-06T05:17:06.907Z,19.45
2022-09-06T05:19:33.677Z,17.30
2022-09-06T05:22:00.389Z,20.17
2022-09-06T05:24:27.078Z,18.42
2022-09-06T05:26:53.794Z,19.20
2022-09-06T05:29:20.598Z,20.90
2022-09-06T05:31:47.369Z,19.45
2022-09-06T05:34:15.165Z,27.10
2022-09-06T05:36:42.153Z,29.38
2022-09-06T05:39:08.918Z,22.65
2022-09-06T05:41:35.655Z,35.75
2022-09-06T05:44:02.774Z,31.02
2022-09-06T05:46:29.501Z,23.85
2022-09-06T05:49:00.517Z,23.27
2022-09-06T05:51:27.412Z,24.20
2022-09-06T05:53:54.111Z,21.95
2022-09-06T05:56:22.380Z,21.42
2022-09-06T05:58:49.046Z,25.40
2022-09-06T06:01:19.722Z,16.73
2022-09-06T06:03:53.062Z,25.35
2022-09-06T06:06:21.107Z,28.92
2022-09-06T06:08:48.204Z,31.42
2022-09-06T06:11:15.109Z,44.05
2022-09-06T06:13:43.277Z,44.65
2022-09-06T06:16:12.534Z,38.55
2022-09-06T06:18:39.418Z,39.97
2022-09-06T06:21:09.226Z,39.35
2022-09-06T06:23:35.982Z,33.97
2022-09-06T06:26:02.933Z,30.38
2022-09-06T06:28:29.659Z,27.05
2022-09-06T06:30:56.352Z,32.33
2022-09-06T06:33:23.051Z,34.40
2022-09-06T06:36:00.780Z,26.25
2022-09-06T06:38:39.218Z,26.50
2022-09-06T06:41:07.485Z,26.05
2022-09-06T06:43:38.026Z,19.58
2022-09-06T06:46:08.828Z,27.60
2022-09-06T06:48:37.147Z,23.20
2022-09-06T06:51:04.169Z,22.17
2022-09-06T06:53:30.936Z,23.50
2022-09-06T06:55:57.598Z,20.30
2022-09-06T06:58:24.397Z,23.58
2022-09-06T07:00:51.178Z,13.75
2022-09-06T07:03:18.493Z,13.25
2022-09-06T07:08:34.711Z,10.68
2022-09-06T07:11:01.469Z,10.15
2022-09-06T07:13:28.356Z,10.07
2022-09-06T07:16:16.190Z,9.30
2022-09-06T07:18:43.757Z,12.60
2022-09-06T07:26:31.891Z,9.70
2022-09-06T07:29:01.042Z,17.42
2022-09-06T07:34:16.112Z,8.95
2022-09-06T07:36:42.811Z,9.15
2022-09-06T07:39:09.465Z,8.65
2022-09-06T07:41:36.145Z,6.25
2022-09-06T07:44:03.408Z,8.10
2022-09-06T07:46:30.139Z,6.72
2022-09-06T07:48:56.935Z,6.80
2022-09-06T07:51:23.654Z,7.03
2022-09-06T07:54:06.901Z,10.82
2022-09-06T07:56:39.353Z,7.95
2022-09-06T07:59:06.626Z,6.68
2022-09-06T08:01:37.853Z,11.25
2022-09-06T08:04:15.499Z,7.90
2022-09-06T08:09:35.188Z,7.28
2022-09-06T08:12:07.501Z,7.53
2022-09-06T08:14:35.134Z,6.45
2022-09-06T08:17:02.603Z,12.70
2022-09-06T08:19:29.355Z,9.73
2022-09-06T08:21:56.401Z,10.30
2022-09-06T08:24:23.373Z,8.13
2022-09-06T08:26:50.371Z,13.45
2022-09-06T08:29:17.232Z,6.75
2022-09-06T08:31:44.804Z,7.95
2022-09-06T08:34:15.367Z,6.95
2022-09-06T08:36:42.754Z,8.02
2022-09-06T08:39:10.409Z,7.05
2022-09-06T08:41:53.925Z,10.00
2022-09-06T08:47:19.670Z,10.43
2022-09-06T08:49:48.676Z,6.93
2022-09-06T08:53:16.230Z,10.05
2022-09-06T08:55:56.054Z,8.13
2022-09-06T08:58:57.874Z,10.52
2022-09-06T09:01:30.293Z,6.57
2022-09-06T09:03:57.630Z,7.78
2022-09-06T09:06:24.837Z,12.43
2022-09-06T09:09:08.649Z,9.05
2022-09-06T09:11:36.361Z,8.88
2022-09-06T09:14:06.266Z,8.48
2022-09-06T09:16:33.285Z,7.82
2022-09-06T09:19:03.092Z,8.63
2022-09-06T09:21:34.278Z,10.95
2022-09-06T09:24:10.109Z,10.13
2022-09-06T09:26:57.876Z,7.28
2022-09-06T09:29:28.674Z,8.75
2022-09-06T09:31:57.639Z,6.43
2022-09-06T09:34:34.431Z,9.68
2022-09-06T09:39:59.524Z,7.43
2022-09-06T09:42:29.334Z,8.35
2022-09-06T09:44:56.924Z,6.45
2022-09-06T09:47:28.666Z,13.60
2022-09-06T09:49:56.276Z,7.95
2022-09-06T09:52:31.666Z,8.55
2022-09-06T09:55:03.474Z,7.68
2022-09-06T09:57:31.825Z,7.57
2022-09-06T10:00:03.015Z,7.38
2022-09-06T10:02:35.881Z,9.38
2022-09-06T10:05:04.914Z,8.82
2022-09-06T10:07:33.186Z,9.00
2022-09-06T10:10:11.593Z,9.20
2022-09-06T10:12:40.222Z,9.40
2022-09-06T10:15:12.460Z,9.25
2022-09-06T10:17:52.696Z,7.60
2022-09-06T10:20:19.389Z,7.30
2022-09-06T10:22:56.383Z,7.45
2022-09-06T10:25:48.908Z,6.75
2022-09-06T10:28:29.525Z,8.65
2022-09-06T10:31:24.506Z,8.80
2022-09-06T10:34:16.678Z,6.50
2022-09-06T10:37:04.705Z,8.63
2022-09-06T10:39:31.366Z,6.10
2022-09-06T10:42:21.177Z,6.35
2022-09-06T10:45:00.121Z,7.50
2022-09-06T10:47:33.253Z,7.22
2022-09-06T10:50:01.741Z,6.85
2022-09-06T10:52:34.003Z,8.18
2022-09-06T10:55:04.609Z,8.38
2022-09-06T11:00:47.409Z,8.23
2022-09-06T11:04:00.160Z,6.22
2022-09-06T11:06:31.811Z,6.32
2022-09-06T11:09:13.668Z,6.07
2022-09-06T11:11:49.984Z,5.90
2022-09-06T11:14:17.292Z,9.00
2022-09-06T11:16:48.550Z,6.30
2022-09-06T11:19:25.502Z,7.25
2022-09-06T11:21:55.019Z,14.63
2022-09-06T11:24:50.638Z,9.23
2022-09-06T11:27:22.239Z,8.55
2022-09-06T11:29:56.372Z,10.10
2022-09-06T11:32:39.003Z,8.57
2022-09-06T11:35:11.316Z,9.15
2022-09-06T11:37:45.293Z,7.57
2022-09-06T11:42:55.452Z,6.40
2022-09-06T11:45:52.061Z,9.48
2022-09-06T11:48:25.369Z,7.03
2022-09-06T11:50:54.954Z,5.53
2022-09-06T11:53:23.494Z,6.05
2022-09-06T11:56:02.543Z,7.40
2022-09-06T11:58:51.816Z,6.68
2022-09-06T12:01:18.967Z,7.35
2022-09-06T12:04:04.915Z,6.97
2022-09-06T12:06:56.233Z,9.95
2022-09-06T12:09:34.637Z,9.73
2022-09-06T12:12:02.104Z,6.75
2022-09-06T12:14:31.292Z,8.13
2022-09-06T12:16:58.053Z,10.25
2022-09-06T12:19:44.142Z,8.32
2022-09-06T12:22:35.369Z,6.57
2022-09-06T12:25:07.011Z,6.30
2022-09-06T12:27:36.761Z,9.05
2022-09-06T12:30:12.224Z,8.02
2022-09-06T12:32:45.542Z,6.53
2022-09-06T12:38:16.194Z,6.30
2022-09-06T12:40:48.265Z,10.45
2022-09-06T12:43:16.989Z,7.95
2022-09-06T12:45:50.761Z,9.23
2022-09-06T12:48:29.693Z,8.05
2022-09-06T12:51:06.855Z,5.90
2022-09-06T12:53:35.008Z,10.15
2022-09-06T12:56:12.708Z,5.65
2022-09-06T12:58:40.038Z,9.18
2022-09-06T13:01:29.850Z,7.13
2022-09-06T13:04:03.426Z,9.25
2022-09-06T13:06:32.991Z,7.25
2022-09-06T13:09:00.139Z,10.88
2022-09-06T13:11:34.337Z,5.90
2022-09-06T13:14:02.196Z,8.18
2022-09-06T13:16:35.865Z,8.05
2022-09-06T13:19:35.886Z,6.97
2022-09-06T13:22:05.627Z,6.40
2022-09-06T13:24:35.559Z,6.50
2022-09-06T13:27:23.203Z,7.00
2022-09-06T13:30:04.648Z,5.85
2022-09-06T13:32:31.672Z,6.10
2022-09-06T13:34:59.454Z,6.63
2022-09-06T13:37:28.949Z,10.60
2022-09-06T13:39:57.487Z,7.30
2022-09-06T13:45:01.899Z,7.10
2022-09-06T13:47:29.886Z,6.85
2022-09-06T13:49:56.709Z,6.32
2022-09-06T13:52:24.889Z,9.82
2022-09-06T13:54:51.562Z,8.10
2022-09-06T13:57:24.164Z,6.75
2022-09-06T13:59:51.370Z,6.95
2022-09-06T14:02:19.979Z,8.85
2022-09-06T14:04:46.893Z,8.13
2022-09-06T14:07:13.729Z,6.43
2022-09-06T14:09:40.443Z,10.07
2022-09-06T14:12:07.157Z,6.28
2022-09-06T14:14:34.426Z,5.68
2022-09-06T14:17:01.465Z,6.93
2022-09-06T14:19:29.019Z,9.25
2022-09-06T14:21:55.940Z,7.20
2022-09-06T14:24:22.779Z,7.05
2022-09-06T14:26:49.486Z,8.43
2022-09-06T14:29:16.370Z,6.25
2022-09-06T14:31:43.094Z,6.85
2022-09-06T14:34:09.834Z,7.82
2022-09-06T14:36:36.557Z,8.73
2022-09-06T14:39:04.021Z,9.38
2022-09-06T14:41:30.748Z,6.55
2022-09-06T14:43:58.654Z,6.68
2022-09-06T14:46:26.992Z,11.80
2022-09-06T14:49:02.095Z,7.80
2022-09-06T14:56:24.972Z,6.38
2022-09-06T14:58:51.793Z,7.07
2022-09-06T15:01:21.121Z,7.45
2022-09-06T15:03:51.667Z,9.15
2022-09-06T15:06:23.133Z,7.30
2022-09-06T15:08:50.115Z,10.23
2022-09-06T15:11:34.716Z,7.68
2022-09-06T15:14:07.897Z,7.60
2022-09-06T15:16:37.347Z,8.40
2022-09-06T15:19:04.427Z,7.53
2022-09-06T15:21:32.243Z,8.65
2022-09-06T15:24:00.208Z,9.20
2022-09-06T15:26:26.945Z,8.02
2022-09-06T15:28:53.797Z,11.07
2022-09-06T15:31:21.171Z,15.07
2022-09-06T15:33:49.022Z,8.85
2022-09-06T15:36:16.400Z,7.13
2022-09-06T15:38:50.757Z,12.20
2022-09-06T15:41:20.201Z,7.57
2022-09-06T15:43:48.873Z,18.75
2022-09-06T15:46:17.259Z,7.22
2022-09-06T15:48:48.929Z,9.43
2022-09-06T15:51:18.016Z,8.20
2022-09-06T15:53:45.297Z,7.50
2022-09-06T15:56:15.233Z,12.68
2022-09-06T15:58:41.910Z,9.48
2022-09-06T16:01:12.381Z,9.35
2022-09-06T16:03:47.190Z,14.70
2022-09-06T16:08:55.644Z,10.95
2022-09-06T16:11:22.362Z,11.35
2022-09-06T16:13:49.569Z,10.25
2022-09-06T16:16:16.935Z,9.60
2022-09-06T16:18:44.785Z,16.10
2022-09-06T16:21:17.996Z,8.73
2022-09-06T16:23:49.730Z,10.02
2022-09-06T16:26:21.126Z,12.00
2022-09-06T16:28:50.004Z,13.15
2022-09-06T16:31:17.194Z,11.45
2022-09-06T16:33:45.593Z,8.18
2022-09-06T16:36:13.958Z,11.05
2022-09-06T16:38:42.146Z,12.13
2022-09-06T16:41:49.256Z,9.15
2022-09-06T16:44:18.105Z,9.23
2022-09-06T16:46:46.648Z,7.90
2022-09-06T16:49:15.357Z,11.88
2022-09-06T16:51:42.029Z,7.93
2022-09-06T16:54:08.769Z,8.63
2022-09-06T16:56:36.281Z,8.10
2022-09-06T16:59:06.927Z,11.25
2022-09-06T17:01:35.042Z,22.77
2022-09-06T17:04:02.345Z,12.18
2022-09-06T17:06:29.842Z,9.80
2022-09-06T17:09:00.272Z,10.20
2022-09-06T17:11:28.133Z,8.88
2022-09-06T17:13:55.698Z,10.02
2022-09-06T17:16:41.414Z,10.80
2022-09-06T17:19:09.175Z,11.98
2022-09-06T17:21:37.169Z,13.32
2022-09-06T17:24:05.527Z,9.50
2022-09-06T17:26:34.733Z,8.27
2022-09-06T17:29:01.540Z,10.10
2022-09-06T17:31:28.574Z,10.70
2022-09-06T17:33:55.571Z,10.23
2022-09-06T17:36:24.766Z,10.85
2022-09-06T17:38:53.772Z,7.25
2022-09-06T17:41:25.406Z,12.07
2022-09-06T17:43:55.521Z,8.25
2022-09-06T17:46:28.365Z,7.93
2022-09-06T17:48:56.010Z,11.13
2022-09-06T17:51:23.100Z,9.13
2022-09-06T17:53:49.937Z,9.30
2022-09-06T17:56:17.749Z,9.27
2022-09-06T17:58:52.296Z,9.05
2022-09-06T18:01:19.024Z,12.02
2022-09-06T18:03:47.139Z,15.48
2022-09-06T18:06:20.528Z,9.48
2022-09-06T18:08:48.032Z,9.48
2022-09-06T18:11:20.949Z,7.30
2022-09-06T18:13:48.186Z,12.20
2022-09-06T18:16:15.018Z,13.48
2022-09-06T18:18:41.936Z,8.52
2022-09-06T18:21:08.653Z,9.40
2022-09-06T18:23:35.903Z,7.50
2022-09-06T18:26:07.442Z,10.43
2022-09-06T18:28:36.566Z,8.73
2022-09-06T18:31:11.444Z,11.95
2022-09-06T18:33:39.162Z,10.13
2022-09-06T18:36:07.369Z,10.98
2022-09-06T18:38:38.153Z,9.13
2022-09-06T18:41:06.846Z,8.77
2022-09-06T18:43:36.455Z,9.70
2022-09-06T18:46:08.513Z,10.43
2022-09-06T18:48:36.865Z,13.35
2022-09-06T18:51:08.041Z,9.02
2022-09-06T18:53:35.298Z,12.00
2022-09-06T18:56:02.242Z,8.63
2022-09-06T18:58:29.126Z,7.93
2022-09-06T19:01:05.551Z,8.60
2022-09-06T19:03:33.215Z,8.52
2022-09-06T19:06:08.595Z,9.02
2022-09-06T19:08:35.467Z,8.52
2022-09-06T19:11:05.114Z,10.52
2022-09-06T19:13:32.622Z,12.23
2022-09-06T19:15:59.618Z,11.50
2022-09-06T19:18:27.374Z,10.82
2022-09-06T19:21:15.566Z,10.90
2022-09-06T19:23:45.004Z,15.55
2022-09-06T19:26:17.062Z,13.32
2022-09-06T19:28:52.338Z,10.10
2022-09-06T19:31:19.572Z,18.15
2022-09-06T19:33:47.987Z,16.75
2022-09-06T19:36:15.882Z,19.27
2022-09-06T19:39:01.889Z,14.63
2022-09-06T19:41:30.479Z,17.17
2022-09-06T19:43:58.158Z,17.15
2022-09-06T19:46:25.293Z,17.48
2022-09-06T19:48:53.652Z,14.07
2022-09-06T19:51:20.955Z,16.60
2022-09-06T19:53:57.746Z,13.27
2022-09-06T19:56:27.149Z,14.77
2022-09-06T19:58:55.713Z,10.30
2022-09-06T20:01:23.679Z,11.73
2022-09-06T20:03:50.481Z,12.70
2022-09-06T20:06:17.198Z,12.85
2022-09-06T20:08:44.056Z,11.35
2022-09-06T20:11:12.727Z,18.48
2022-09-06T20:13:40.175Z,12.35
2022-09-06T20:16:10.765Z,15.77
2022-09-06T20:18:37.894Z,15.68
2022-09-06T20:21:05.371Z,15.65
2022-09-06T20:23:34.122Z,13.63
2022-09-06T20:26:09.444Z,12.90
2022-09-06T20:28:37.160Z,32.35
2022-09-06T20:31:10.021Z,17.42
2022-09-06T20:33:37.878Z,23.17
2022-09-06T20:36:07.266Z,12.20
2022-09-06T20:38:37.580Z,12.63
2022-09-06T20:41:06.490Z,14.60
2022-09-06T20:43:36.674Z,17.02
2022-09-06T20:46:11.852Z,19.38
2022-09-06T20:51:12.434Z,21.77
2022-09-06T20:53:42.357Z,21.05
2022-09-06T20:56:13.821Z,19.67
2022-09-06T20:58:41.415Z,13.27
2022-09-06T21:01:15.324Z,16.67
2022-09-06T21:03:42.575Z,17.05
2022-09-06T21:06:10.971Z,14.65
2022-09-06T21:08:42.353Z,13.10
2022-09-06T21:11:10.402Z,12.75
2022-09-06T21:13:37.896Z,19.20
2022-09-06T21:16:05.245Z,16.15
2022-09-06T21:18:32.884Z,14.23
2022-09-06T21:21:04.777Z,15.07
2022-09-06T21:23:35.342Z,19.02
2022-09-06T21:26:06.924Z,20.58
2022-09-06T21:28:35.441Z,22.92
2022-09-06T21:31:13.732Z,14.32
2022-09-06T21:33:42.302Z,24.20
2022-09-06T21:36:11.742Z,13.38
2022-09-06T21:38:40.608Z,15.63
2022-09-06T21:41:08.661Z,17.30
2022-09-06T21:43:35.801Z,19.77
2022-09-06T21:46:04.317Z,15.15
2022-09-06T21:48:31.125Z,26.33
2022-09-06T21:50:58.154Z,15.43
2022-09-06T21:53:26.683Z,15.10
2022-09-06T21:55:53.363Z,18.17
2022-09-06T21:58:20.272Z,16.55
2022-09-06T22:00:52.568Z,14.77
2022-09-06T22:03:19.845Z,12.88
2022-09-06T22:05:47.380Z,18.35
2022-09-06T22:08:14.061Z,16.95
2022-09-06T22:10:40.899Z,15.40
2022-09-06T22:13:07.719Z,14.38
2022-09-06T22:15:38.087Z,11.93
2022-09-06T22:18:05.288Z,13.32
2022-09-06T22:20:32.189Z,17.92
2022-09-06T22:22:58.851Z,13.73
2022-09-06T22:25:25.547Z,16.77
2022-09-06T22:27:52.260Z,13.40
2022-09-06T22:30:21.623Z,14.32
2022-09-06T22:32:52.739Z,12.75
2022-09-06T22:35:20.329Z,12.82
2022-09-06T22:37:47.036Z,14.68
2022-09-06T22:40:13.790Z,14.93
2022-09-06T22:42:40.520Z,14.48
2022-09-06T22:45:07.653Z,10.63
2022-09-06T22:47:34.346Z,12.35
2022-09-06T22:50:01.093Z,18.45
2022-09-06T22:52:28.070Z,11.45
2022-09-06T22:54:54.742Z,12.90
2022-09-06T22:57:21.420Z,9.90
2022-09-06T22:59:48.641Z,12.05
2022-09-06T23:02:15.364Z,12.40
2022-09-06T23:04:42.058Z,15.45
2022-09-06T23:07:08.796Z,9.27
2022-09-06T23:09:35.454Z,12.10
2022-09-06T23:12:02.449Z,13.05
2022-09-06T23:14:29.138Z,10.43
2022-09-06T23:16:55.998Z,10.88
2022-09-06T23:19:22.642Z,14.10
2022-09-06T23:21:49.431Z,10.15
2022-09-06T23:24:16.181Z,12.40
2022-09-06T23:26:42.837Z,12.38
2022-09-06T23:29:09.590Z,9.57
2022-09-06T23:31:36.498Z,9.50
2022-09-06T23:34:05.116Z,13.38
2022-09-06T23:36:32.438Z,15.15
2022-09-06T23:38:59.860Z,13.98
2022-09-06T23:41:26.591Z,11.02
2022-09-06T23:43:53.431Z,12.98
2022-09-06T23:46:20.457Z,14.80
2022-09-06T23:48:47.532Z,14.63
2022-09-06T23:51:14.424Z,16.05
2022-09-06T23:53:41.414Z,14.80
2022-09-06T23:56:08.526Z,11.43
2022-09-06T23:58:35.439Z,10.68
